20:42
Airports
History
Links
Donate
Help keep this website running!
PayPal
Bitcoin
This page is community maintained. The information is intended for PC simulator navigation or reference.
Always use approved charts for navigation.
RJTF
Chofu
Chofu (RJTF)
Mitaka-shi, Tokyo, Japan (181)
(C)
Lat/Lng:35° 40' 17.58" N / 139° 31' 40.58" E
35.671551 / 139.527939
Elevation:135'ft / 41mMSL
ID / ICAO:RJTF
Runways:1
Longest:35-17
Asphalt 805m / 2,640ft
Controlled:Yes
METAR07:00 GMT 2017-09-22
Altimeter: 30.03
Visibility: 4.3 statute miles
Wind: 3 knots (from 110°)
Temp: 21°c / 70°f
Humidity: 83.0%

METAR: RJTF 220700Z 11003KT 060V130 7000 -SHRA SCT025 BKN035 BKN060 21/18 Q1017

(Powered by phpweather)
Nearby VORs <50NM
Nearby NDBs
Runway 35 / 17
Dimensions:804.7 x 29.9m 2640' x 98'ft
Surface:Asphalt
Runway 35 [A]Runway 17 [B]
Heading:342°TH 162°TH
Lat:
Lng:
35° 40' 5.23"N
139° 31' 45.38"E
35° 40' 29.94"N
139° 31' 35.78"E
User Notes and Comments
35° 40' 17.58" N / 139° 31' 40.58" E
Distance To
Airport ID:
Nearby Airports
(C) Tachikawa AB 7.5 NM
RJTC ( WX ) WNW 291°
(C) YOKOTA AB 11.4 NM
RJTY ( WX ) WNW 297°
(C) KASTNER AAF 13.3 NM
RJTR ( WX ) SW 214°
(C) IRUMA 13.5 NM
RJTJ ( WX ) NNW 330°
(C) ATSUGI NAF 15.6 NM
RJTA ( WX ) SSW 196°
(C) Tokyo Haneda Intl 17.2 NM
RJTT ( WX ) ESE 120°
(C) Honda Airport 21.1 NM
RJT1 N 359°
VFR Chart
Flight Planning at SkyVector.com